createdAt,value
2022-09-23T00:01:20.968Z,100784.44
2022-09-23T00:03:49.535Z,100783.38
2022-09-23T00:06:20.094Z,100777.16
2022-09-23T00:08:49.828Z,100775.81
2022-09-23T00:11:26.501Z,100772.06
2022-09-23T00:13:56.935Z,100781.78
2022-09-23T00:16:28.672Z,100779.06
2022-09-23T00:18:56.801Z,100779.66
2022-09-23T00:21:25.446Z,100779.41
2022-09-23T00:23:53.554Z,100771.31
2022-09-23T00:26:22.931Z,100774.56
2022-09-23T00:28:51.092Z,100768.09
2022-09-23T00:31:26.217Z,100772.41
2022-09-23T00:34:01.900Z,100771.31
2022-09-23T00:36:30.743Z,100773.22
2022-09-23T00:38:58.937Z,100773.78
2022-09-23T00:41:27.245Z,100771.63
2022-09-23T00:44:00.013Z,100757.09
2022-09-23T00:46:37.578Z,100756.28
2022-09-23T00:49:14.603Z,100756.00
2022-09-23T00:51:50.840Z,100758.97
2022-09-23T00:54:19.647Z,100771.94
2022-09-23T00:56:47.241Z,100768.19
2022-09-23T00:59:17.238Z,100767.09
2022-09-23T01:01:45.003Z,100767.06
2022-09-23T01:04:13.026Z,100769.00
2022-09-23T01:06:41.221Z,100768.19
2022-09-23T01:09:08.727Z,100767.38
2022-09-23T01:12:18.893Z,100759.00
2022-09-23T01:15:01.153Z,100760.91
2022-09-23T01:17:42.774Z,100749.56
2022-09-23T01:20:28.201Z,100738.75
2022-09-23T01:23:09.442Z,100744.16
2022-09-23T01:26:01.508Z,100748.19
2022-09-23T01:28:55.128Z,100751.69
2022-09-23T01:31:43.835Z,100747.91
2022-09-23T01:34:24.472Z,100755.50
2022-09-23T01:37:15.718Z,100757.41
2022-09-23T01:40:02.122Z,100754.16
2022-09-23T01:42:44.803Z,100741.47
2022-09-23T01:45:43.782Z,100742.56
2022-09-23T01:48:34.765Z,100746.31
2022-09-23T01:51:27.299Z,100751.47
2022-09-23T01:54:06.080Z,100750.66
2022-09-23T01:56:42.684Z,100757.66
2022-09-23T01:59:18.865Z,100753.91
2022-09-23T02:01:51.225Z,100747.94
2022-09-23T02:04:30.734Z,100742.81
2022-09-23T02:07:20.617Z,100749.56
2022-09-23T02:10:06.260Z,100743.63
2022-09-23T02:12:36.136Z,100747.94
2022-09-23T02:15:09.020Z,100744.19
2022-09-23T02:17:54.038Z,100747.44
2022-09-23T02:20:28.999Z,100743.66
2022-09-23T02:23:13.343Z,100739.34
2022-09-23T02:25:54.634Z,100743.66
2022-09-23T02:28:42.283Z,100742.59
2022-09-23T02:31:23.222Z,100738.78
2022-09-23T02:33:57.479Z,100742.28
2022-09-23T02:36:49.863Z,100743.63
2022-09-23T02:39:22.143Z,100746.88
2022-09-23T02:42:02.587Z,100748.50
2022-09-23T02:44:32.836Z,100746.38
2022-09-23T02:47:01.093Z,100749.06
2022-09-23T02:49:30.657Z,100737.72
2022-09-23T02:52:05.010Z,100741.47
2022-09-23T02:54:34.184Z,100726.91
2022-09-23T02:57:09.351Z,100719.34
2022-09-23T02:59:38.797Z,100722.59
2022-09-23T03:02:15.110Z,100732.81
2022-09-23T03:05:01.913Z,100731.22
2022-09-23T03:08:07.876Z,100732.81
2022-09-23T03:10:56.803Z,100742.56
2022-09-23T03:13:56.339Z,100744.75
2022-09-23T03:16:44.592Z,100735.31
2022-09-23T03:19:36.135Z,100737.78
2022-09-23T03:22:12.992Z,100727.47
2022-09-23T03:24:51.821Z,100731.50
2022-09-23T03:27:26.156Z,100733.94
2022-09-23T03:29:56.077Z,100728.28
2022-09-23T03:32:28.220Z,100743.66
2022-09-23T03:34:58.740Z,100731.81
2022-09-23T03:37:57.042Z,100730.75
2022-09-23T03:40:30.433Z,100722.59
2022-09-23T03:42:59.363Z,100722.91
2022-09-23T03:45:32.144Z,100725.38
2022-09-23T03:48:02.202Z,100713.25
2022-09-23T03:50:30.128Z,100708.66
2022-09-23T03:52:57.691Z,100704.91
2022-09-23T03:55:25.277Z,100706.00
2022-09-23T03:57:52.829Z,100706.00
2022-09-23T04:00:20.374Z,100710.84
2022-09-23T04:02:48.491Z,100713.56
2022-09-23T04:05:18.231Z,100718.94
2022-09-23T04:07:45.996Z,100721.41
2022-09-23T04:10:13.448Z,100721.91
2022-09-23T04:12:40.871Z,100731.38
2022-09-23T04:15:08.710Z,100724.63
2022-09-23T04:17:37.769Z,100722.22
2022-09-23T04:20:05.926Z,100720.03
2022-09-23T04:22:34.448Z,100725.16
2022-09-23T04:25:02.333Z,100718.38
2022-09-23T04:27:35.489Z,100713.50
2022-09-23T04:30:05.433Z,100720.28
2022-09-23T04:32:32.932Z,100713.25
2022-09-23T04:35:00.557Z,100713.50
2022-09-23T04:37:29.705Z,100707.28
2022-09-23T04:39:57.259Z,100702.13
2022-09-23T04:42:25.067Z,100700.44
2022-09-23T04:44:52.758Z,100705.84
2022-09-23T04:47:20.349Z,100703.16
2022-09-23T04:49:48.545Z,100703.72
2022-09-23T04:52:16.677Z,100696.75
2022-09-23T04:54:44.156Z,100697.31
2022-09-23T04:57:11.689Z,100688.16
2022-09-23T04:59:39.137Z,100688.69
2022-09-23T05:02:06.636Z,100688.69
2022-09-23T05:04:34.209Z,100687.63
2022-09-23T05:07:03.510Z,100687.06
2022-09-23T05:09:31.388Z,100677.34
2022-09-23T05:11:59.004Z,100673.53
2022-09-23T05:14:26.513Z,100676.53
2022-09-23T05:16:53.935Z,100684.88
2022-09-23T05:19:21.604Z,100679.50
2022-09-23T05:21:49.100Z,100677.59
2022-09-23T05:24:17.042Z,100678.41
2022-09-23T05:26:44.519Z,100678.72
2022-09-23T05:29:13.765Z,100669.81
2022-09-23T05:31:41.399Z,100670.63
2022-09-23T05:34:09.051Z,100674.13
2022-09-23T05:36:39.243Z,100680.63
2022-09-23T05:39:08.844Z,100677.09
2022-09-23T05:41:39.325Z,100671.94
2022-09-23T05:44:08.035Z,100678.41
2022-09-23T05:46:36.312Z,100679.22
2022-09-23T05:49:05.847Z,100686.25
2022-09-23T05:51:35.962Z,100677.91
2022-09-23T05:54:04.544Z,100674.75
2022-09-23T05:56:33.758Z,100673.13
2022-09-23T05:59:02.771Z,100668.84
2022-09-23T06:01:34.200Z,100681.53
2022-09-23T06:04:03.959Z,100679.69
2022-09-23T06:06:38.044Z,100655.09
2022-09-23T06:09:06.695Z,100668.97
2022-09-23T06:11:36.023Z,100673.31
2022-09-23T06:14:04.818Z,100666.09
2022-09-23T06:16:36.784Z,100662.56
2022-09-23T06:19:07.432Z,100659.38
2022-09-23T06:21:37.936Z,100669.91
2022-09-23T06:24:07.024Z,100668.53
2022-09-23T06:26:35.705Z,100663.41
2022-09-23T06:29:08.935Z,100651.25
2022-09-23T06:31:36.590Z,100658.00
2022-09-23T06:34:11.664Z,100651.19
2022-09-23T06:36:44.557Z,100653.66
2022-09-23T06:39:16.401Z,100649.63
2022-09-23T06:41:45.587Z,100654.25
2022-09-23T06:44:16.386Z,100646.72
2022-09-23T06:46:46.589Z,100656.75
2022-09-23T06:49:14.265Z,100653.50
2022-09-23T06:51:42.432Z,100640.53
2022-09-23T06:54:11.381Z,100650.00
2022-09-23T06:56:39.821Z,100651.91
2022-09-23T06:59:10.797Z,100641.34
2022-09-23T07:01:38.587Z,100636.19
2022-09-23T07:04:08.031Z,100635.03
2022-09-23T07:06:36.168Z,100635.00
2022-09-23T07:09:06.114Z,100626.88
2022-09-23T07:11:34.883Z,100633.94
2022-09-23T07:14:02.601Z,100635.00
2022-09-23T07:16:30.404Z,100627.72
2022-09-23T07:18:58.073Z,100638.84
2022-09-23T07:21:25.637Z,100632.34
2022-09-23T07:23:54.125Z,100622.03
2022-09-23T07:26:23.764Z,100628.19
2022-09-23T07:28:57.004Z,100626.00
2022-09-23T07:31:37.894Z,100631.13
2022-09-23T07:34:08.712Z,100636.81
2022-09-23T07:36:37.708Z,100645.38
2022-09-23T07:39:05.696Z,100638.78
2022-09-23T07:41:34.257Z,100639.81
2022-09-23T07:44:03.278Z,100642.25
2022-09-23T07:46:34.248Z,100654.25
2022-09-23T07:49:05.532Z,100647.22
2022-09-23T07:51:39.054Z,100655.81
2022-09-23T07:54:11.181Z,100643.34
2022-09-23T07:56:39.060Z,100641.19
2022-09-23T07:59:09.415Z,100628.94
2022-09-23T08:01:45.036Z,100628.91
2022-09-23T08:04:17.983Z,100624.25
2022-09-23T08:06:48.731Z,100627.16
2022-09-23T08:09:18.366Z,100638.50
2022-09-23T08:11:46.446Z,100620.50
2022-09-23T08:14:19.379Z,100610.94
2022-09-23T08:16:47.928Z,100604.41
2022-09-23T08:19:16.315Z,100603.84
2022-09-23T08:21:46.919Z,100604.94
2022-09-23T08:24:19.619Z,100594.03
2022-09-23T08:26:48.930Z,100593.00
2022-09-23T08:29:19.109Z,100593.59
2022-09-23T08:31:47.780Z,100595.75
2022-09-23T08:34:16.452Z,100600.34
2022-09-23T08:36:47.998Z,100591.97
2022-09-23T08:39:21.323Z,100590.84
2022-09-23T08:42:01.007Z,100602.66
2022-09-23T08:44:46.298Z,100605.00
2022-09-23T08:47:28.187Z,100605.75
2022-09-23T08:50:15.645Z,100599.56
2022-09-23T08:52:55.790Z,100605.50
2022-09-23T08:55:53.821Z,100608.50
2022-09-23T08:58:36.429Z,100602.34
2022-09-23T09:01:13.544Z,100603.16
2022-09-23T09:04:02.409Z,100603.31
2022-09-23T09:15:07.865Z,100593.25
2022-09-23T09:17:48.697Z,100590.38
2022-09-23T09:20:19.300Z,100586.19
2022-09-23T09:23:00.120Z,100591.97
2022-09-23T09:25:40.187Z,100599.16
2022-09-23T09:28:20.450Z,100597.53
2022-09-23T09:30:53.848Z,100585.63
2022-09-23T09:33:28.453Z,100594.94
2022-09-23T09:36:09.940Z,100577.66
2022-09-23T09:38:38.552Z,100584.84
2022-09-23T09:53:46.067Z,100587.63
2022-09-23T09:56:16.973Z,100589.91
2022-09-23T09:58:54.325Z,100585.09
2022-09-23T10:01:25.206Z,100586.66
2022-09-23T10:03:57.019Z,100587.31
2022-09-23T10:06:29.208Z,100580.34
2022-09-23T10:09:02.657Z,100587.66
2022-09-23T10:11:31.381Z,100593.75
2022-09-23T10:14:17.787Z,100589.09
2022-09-23T10:16:49.959Z,100585.25
2022-09-23T10:19:28.932Z,100579.50
2022-09-23T10:22:05.533Z,100582.50
2022-09-23T10:24:37.290Z,100574.34
2022-09-23T10:27:14.463Z,100573.75
2022-09-23T10:29:48.014Z,100566.25
2022-09-23T10:32:44.099Z,100565.13
2022-09-23T10:35:18.106Z,100568.78
2022-09-23T10:37:56.177Z,100565.59
2022-09-23T10:40:53.510Z,100559.16
2022-09-23T10:44:09.510Z,100556.47
2022-09-23T10:46:39.163Z,100547.09
2022-09-23T10:49:10.201Z,100560.63
2022-09-23T10:52:11.833Z,100547.91
2022-09-23T10:55:12.857Z,100538.41
2022-09-23T10:57:46.285Z,100547.38
2022-09-23T11:00:25.761Z,100545.47
2022-09-23T11:03:09.975Z,100544.63
2022-09-23T11:06:11.598Z,100549.25
2022-09-23T11:08:51.199Z,100543.22
2022-09-23T11:11:41.532Z,100551.00
2022-09-23T11:14:27.846Z,100552.28
2022-09-23T11:17:15.093Z,100553.84
2022-09-23T11:20:08.626Z,100563.53
2022-09-23T11:23:07.410Z,100570.78
2022-09-23T11:25:47.409Z,100563.44
2022-09-23T11:29:11.175Z,100566.53
2022-09-23T11:31:49.190Z,100581.38
2022-09-23T11:34:55.196Z,100582.47
2022-09-23T11:37:32.406Z,100585.44
2022-09-23T11:40:19.855Z,100582.19
2022-09-23T11:42:58.454Z,100576.47
2022-09-23T11:45:31.878Z,100583.81
2022-09-23T11:48:13.041Z,100587.63
2022-09-23T11:50:50.579Z,100589.78
2022-09-23T11:53:31.011Z,100580.13
2022-09-23T11:56:07.978Z,100578.84
2022-09-23T11:58:50.411Z,100584.56
2022-09-23T12:01:45.398Z,100581.38
2022-09-23T12:04:25.760Z,100578.22
2022-09-23T12:07:04.439Z,100586.38
2022-09-23T12:09:57.322Z,100581.91
2022-09-23T12:12:35.479Z,100581.91
2022-09-23T12:15:33.799Z,100579.66
2022-09-23T12:18:04.480Z,100596.06
2022-09-23T12:20:37.975Z,100602.19
2022-09-23T12:23:36.944Z,100602.66
2022-09-23T12:26:18.096Z,100595.63
2022-09-23T12:28:50.106Z,100577.47
2022-09-23T12:31:22.352Z,100577.56
2022-09-23T12:33:54.638Z,100573.03
2022-09-23T12:36:27.087Z,100576.03
2022-09-23T12:39:33.315Z,100581.72
2022-09-23T12:42:03.757Z,100580.41
2022-09-23T12:44:39.804Z,100589.78
2022-09-23T12:47:25.098Z,100586.91
2022-09-23T12:50:01.484Z,100579.75
2022-09-23T12:52:33.657Z,100585.75
2022-09-23T12:55:25.860Z,100576.00
2022-09-23T12:57:53.484Z,100580.41
2022-09-23T13:00:20.816Z,100567.94
2022-09-23T13:02:48.431Z,100573.09
2022-09-23T13:05:41.255Z,100577.72
2022-09-23T13:08:20.602Z,100569.03
2022-09-23T13:10:54.588Z,100572.81
2022-09-23T13:13:39.327Z,100572.22
2022-09-23T13:16:32.199Z,100574.34
2022-09-23T13:19:01.014Z,100579.78
2022-09-23T13:21:45.893Z,100579.50
2022-09-23T13:24:13.255Z,100580.03
2022-09-23T13:26:46.061Z,100577.06
2022-09-23T13:29:28.563Z,100578.28
2022-09-23T13:32:00.358Z,100576.47
2022-09-23T13:34:32.502Z,100583.53
2022-09-23T13:37:20.200Z,100586.25
2022-09-23T13:39:50.262Z,100588.22
2022-09-23T13:42:27.757Z,100582.84
2022-09-23T13:45:00.703Z,100584.53
2022-09-23T13:47:30.890Z,100585.63
2022-09-23T13:49:58.441Z,100586.47
2022-09-23T13:52:33.205Z,100565.16
2022-09-23T13:55:00.642Z,100580.56
2022-09-23T13:57:34.302Z,100576.53
2022-09-23T14:00:17.317Z,100584.13
2022-09-23T14:02:47.197Z,100584.66
2022-09-23T14:05:23.464Z,100587.88
2022-09-23T14:07:56.727Z,100589.00
2022-09-23T14:10:27.947Z,100603.69
2022-09-23T14:12:56.752Z,100604.28
2022-09-23T14:15:24.477Z,100618.72
2022-09-23T14:18:02.699Z,100623.41
2022-09-23T14:20:30.220Z,100634.31
2022-09-23T14:23:27.400Z,100634.91
2022-09-23T14:25:56.170Z,100632.47
2022-09-23T14:28:26.663Z,100634.97
2022-09-23T14:30:58.631Z,100640.97
2022-09-23T14:33:30.779Z,100633.41
2022-09-23T14:36:07.964Z,100633.44
2022-09-23T14:38:51.311Z,100636.44
2022-09-23T14:41:24.775Z,100642.41
2022-09-23T14:43:59.554Z,100649.19
2022-09-23T14:46:38.324Z,100644.06
2022-09-23T14:49:15.355Z,100641.91
2022-09-23T14:51:52.070Z,100644.34
2022-09-23T14:54:41.897Z,100643.28
2022-09-23T14:57:26.226Z,100638.13
2022-09-23T14:59:59.485Z,100634.56
2022-09-23T15:02:32.890Z,100634.03
2022-09-23T15:05:15.809Z,100641.63
2022-09-23T15:07:55.832Z,100635.66
2022-09-23T15:10:28.994Z,100634.84
2022-09-23T15:13:07.441Z,100642.97
2022-09-23T15:15:35.969Z,100638.13
2022-09-23T15:18:11.811Z,100641.34
2022-09-23T15:20:39.517Z,100635.41
2022-09-23T15:23:07.084Z,100634.59
2022-09-23T15:25:40.538Z,100632.97
2022-09-23T15:28:10.964Z,100637.56
2022-09-23T15:30:39.771Z,100639.75
2022-09-23T15:33:09.273Z,100630.25
2022-09-23T15:35:36.869Z,100639.72
2022-09-23T15:38:04.407Z,100630.25
2022-09-23T15:40:35.486Z,100638.94
2022-09-23T15:43:20.620Z,100651.06
2022-09-23T15:45:58.249Z,100665.41
2022-09-23T15:48:30.194Z,100660.00
2022-09-23T15:50:59.310Z,100658.94
2022-09-23T15:53:28.261Z,100663.78
2022-09-23T15:55:55.995Z,100675.41
2022-09-23T15:58:23.964Z,100673.25
2022-09-23T16:00:56.580Z,100672.44
2022-09-23T16:03:28.778Z,100661.06
2022-09-23T16:06:00.296Z,100665.16
2022-09-23T16:08:29.029Z,100662.41
2022-09-23T16:10:56.674Z,100655.66
2022-09-23T16:13:24.285Z,100657.50
2022-09-23T16:15:51.769Z,100666.97
2022-09-23T16:18:19.367Z,100667.78
2022-09-23T16:20:47.952Z,100663.41
2022-09-23T16:23:36.087Z,100665.31
2022-09-23T16:26:23.004Z,100678.78
2022-09-23T16:28:54.163Z,100680.63
2022-09-23T16:31:25.452Z,100674.91
2022-09-23T16:33:54.020Z,100682.44
2022-09-23T16:36:31.447Z,100687.56
2022-09-23T16:39:00.687Z,100692.09
2022-09-23T16:41:31.350Z,100705.59
2022-09-23T16:44:01.091Z,100707.75
2022-09-23T16:46:29.516Z,100712.59
2022-09-23T16:48:58.151Z,100710.13
2022-09-23T16:51:29.030Z,100718.22
2022-09-23T16:54:02.306Z,100720.66
2022-09-23T16:56:31.180Z,100724.94
2022-09-23T16:58:58.632Z,100732.47
2022-09-23T17:01:46.978Z,100728.13
2022-09-23T17:04:16.048Z,100738.66
2022-09-23T17:06:50.703Z,100736.47
2022-09-23T17:09:20.316Z,100746.19
2022-09-23T17:11:58.102Z,100750.53
2022-09-23T17:14:26.353Z,100742.94
2022-09-23T17:16:53.790Z,100737.78
2022-09-23T17:19:21.366Z,100735.91
2022-09-23T17:21:48.842Z,100734.81
2022-09-23T17:24:19.208Z,100755.84
2022-09-23T17:26:52.842Z,100743.63
2022-09-23T17:29:20.985Z,100747.44
2022-09-23T17:31:48.515Z,100745.00
2022-09-23T17:34:16.643Z,100735.28
2022-09-23T17:36:44.047Z,100743.63
2022-09-23T17:39:11.663Z,100745.78
2022-09-23T17:41:39.340Z,100740.91
2022-09-23T17:44:08.295Z,100745.72
2022-09-23T17:46:35.763Z,100745.41
2022-09-23T17:49:04.248Z,100757.59
2022-09-23T17:51:32.025Z,100752.75
2022-09-23T17:53:59.583Z,100740.91
2022-09-23T17:56:30.162Z,100742.28
2022-09-23T17:59:02.033Z,100746.59
2022-09-23T18:01:29.993Z,100742.03
2022-09-23T18:04:00.482Z,100738.75
2022-09-23T18:06:32.144Z,100732.75
2022-09-23T18:09:06.959Z,100750.81
2022-09-23T18:11:45.343Z,100745.09
2022-09-23T18:14:20.221Z,100759.00
2022-09-23T18:16:51.543Z,100747.63
2022-09-23T18:19:21.890Z,100750.81
2022-09-23T18:21:51.992Z,100751.88
2022-09-23T18:24:35.502Z,100759.41
2022-09-23T18:27:06.704Z,100745.91
2022-09-23T18:29:36.978Z,100737.75
2022-09-23T18:32:04.591Z,100742.03
2022-09-23T18:34:35.068Z,100736.00
2022-09-23T18:37:02.487Z,100737.06
2022-09-23T18:39:29.918Z,100743.25
2022-09-23T18:41:57.372Z,100737.53
2022-09-23T18:44:25.742Z,100741.00
2022-09-23T18:46:53.411Z,100736.38
2022-09-23T18:49:39.424Z,100734.72
2022-09-23T18:52:06.894Z,100730.38
2022-09-23T18:54:34.714Z,100730.28
2022-09-23T18:57:02.182Z,100731.06
2022-09-23T18:59:30.056Z,100723.72
2022-09-23T19:01:57.867Z,100733.38
2022-09-23T19:04:26.633Z,100743.59
2022-09-23T19:06:58.107Z,100746.78
2022-09-23T19:09:25.773Z,100746.22
2022-09-23T19:11:53.638Z,100751.59
2022-09-23T19:14:24.287Z,100755.94
2022-09-23T19:16:52.184Z,100753.81
2022-09-23T19:19:19.968Z,100754.38
2022-09-23T19:21:49.719Z,100766.75
2022-09-23T19:24:20.265Z,100770.25
2022-09-23T19:26:48.767Z,100768.34
2022-09-23T19:29:19.775Z,100769.06
2022-09-23T19:31:47.766Z,100770.91
2022-09-23T19:34:23.984Z,100779.41
2022-09-23T19:36:51.926Z,100778.72
2022-09-23T19:39:24.821Z,100782.66
2022-09-23T19:41:56.060Z,100786.59
2022-09-23T19:44:25.371Z,100775.16
2022-09-23T19:46:56.346Z,100783.19
2022-09-23T19:49:25.346Z,100777.63
2022-09-23T19:51:56.155Z,100795.91
2022-09-23T19:54:26.767Z,100797.69
2022-09-23T19:56:57.128Z,100805.78
2022-09-23T19:59:26.585Z,100794.25
2022-09-23T20:01:54.829Z,100788.97
2022-09-23T20:04:22.634Z,100782.03
2022-09-23T20:06:50.151Z,100790.66
2022-09-23T20:09:17.768Z,100790.91
2022-09-23T20:11:50.747Z,100804.06
2022-09-23T20:14:19.586Z,100806.06
2022-09-23T20:16:52.133Z,100799.47
2022-09-23T20:19:19.618Z,100800.47
2022-09-23T20:22:08.799Z,100798.97
2022-09-23T20:24:36.282Z,100805.81
2022-09-23T20:27:09.453Z,100808.66
2022-09-23T20:29:37.572Z,100814.03
2022-09-23T20:32:05.249Z,100818.84
2022-09-23T20:34:33.855Z,100829.13
2022-09-23T20:37:01.372Z,100835.63
2022-09-23T20:39:28.925Z,100836.78
2022-09-23T20:41:56.467Z,100849.19
2022-09-23T20:44:24.073Z,100847.06
2022-09-23T20:46:52.093Z,100852.75
2022-09-23T20:49:21.007Z,100854.63
2022-09-23T20:51:49.228Z,100856.19
2022-09-23T20:54:20.718Z,100859.13
2022-09-23T20:56:48.203Z,100846.19
2022-09-23T20:59:18.103Z,100871.41
2022-09-23T21:01:45.984Z,100881.25
2022-09-23T21:04:13.463Z,100864.94
2022-09-23T21:06:40.996Z,100865.22
2022-09-23T21:09:09.052Z,100867.66
2022-09-23T21:11:37.612Z,100872.84
2022-09-23T21:14:05.171Z,100884.78
2022-09-23T21:16:32.772Z,100869.25
2022-09-23T21:19:00.444Z,100878.84
2022-09-23T21:21:27.912Z,100878.47
2022-09-23T21:24:07.060Z,100885.16
2022-09-23T21:26:47.487Z,100880.72
2022-09-23T21:29:14.963Z,100883.28
2022-09-23T21:31:42.747Z,100890.75
2022-09-23T21:34:11.745Z,100898.22
2022-09-23T21:36:45.372Z,100891.34
2022-09-23T21:39:13.298Z,100902.91
2022-09-23T21:41:40.829Z,100903.38
2022-09-23T21:44:08.757Z,100917.25
2022-09-23T21:46:37.105Z,100918.28
2022-09-23T21:49:05.518Z,100930.34
2022-09-23T21:51:38.711Z,100931.03
2022-09-23T21:54:12.606Z,100942.81
2022-09-23T21:56:41.291Z,100948.41
2022-09-23T21:59:08.951Z,100957.72
2022-09-23T22:01:39.800Z,100957.97
2022-09-23T22:04:18.748Z,100964.16
2022-09-23T22:06:46.941Z,100961.59
2022-09-23T22:09:20.972Z,100958.22
2022-09-23T22:12:09.883Z,100979.81
2022-09-23T22:14:39.260Z,100959.84
2022-09-23T22:17:08.743Z,100970.59
2022-09-23T22:19:44.311Z,100976.22
2022-09-23T22:22:16.268Z,100983.22
2022-09-23T22:24:45.578Z,100977.50
2022-09-23T22:27:16.920Z,100976.34
2022-09-23T22:30:02.698Z,100970.84
2022-09-23T22:32:52.915Z,100981.75
2022-09-23T22:35:22.542Z,100988.25
2022-09-23T22:37:50.025Z,100985.13
2022-09-23T22:40:18.078Z,100989.22
2022-09-23T22:42:46.086Z,100992.72
2022-09-23T22:45:14.015Z,100989.31
2022-09-23T22:47:44.328Z,100987.19
2022-09-23T22:50:14.177Z,100993.97
2022-09-23T22:52:41.656Z,100987.56
2022-09-23T22:55:09.819Z,100991.06
2022-09-23T22:57:38.190Z,100988.09
2022-09-23T23:00:07.570Z,100996.44
2022-09-23T23:02:35.297Z,100984.63
2022-09-23T23:05:02.839Z,100984.38
2022-09-23T23:07:32.420Z,100991.38
2022-09-23T23:09:59.931Z,101007.50
2022-09-23T23:12:27.421Z,100993.50
2022-09-23T23:14:55.085Z,101001.81
2022-09-23T23:17:22.626Z,101004.25
2022-09-23T23:19:51.149Z,100997.50
2022-09-23T23:22:18.805Z,101003.44
2022-09-23T23:24:50.237Z,101001.81
2022-09-23T23:27:17.681Z,101003.44
2022-09-23T23:29:45.122Z,101005.31
2022-09-23T23:32:12.654Z,101009.06
2022-09-23T23:34:40.177Z,101001.81
2022-09-23T23:37:07.637Z,101005.56
2022-09-23T23:39:35.290Z,101011.16
2022-09-23T23:42:03.970Z,101016.53
2022-09-23T23:44:31.781Z,101011.16
2022-09-23T23:46:59.299Z,101010.56
2022-09-23T23:49:26.908Z,101017.59
2022-09-23T23:51:54.566Z,101023.44
2022-09-23T23:54:22.030Z,101028.47
2022-09-23T23:56:49.560Z,101020.28
2022-09-23T23:59:18.074Z,101037.13
